logo
Search for airport 
image banner adimage banner adimage banner ad
image banner ad

SDBZ - Faz. Brauna

Located in Arraias, Brazil

ICAO - SDBZ, IATA -

Data provided by Airmate  

General information

Coordinates: S12°32'58" W46°53'12"
Elevation is 1309 feet MSL.
Magnetic variation is -22° East
View others Airports in Tocatins

Operational data

Special qualification required
Current time UTC:
Current local time:
Weather at : - ( 0 km )
METAR: KXSA 140335Z AUTO 00000KT 10SM CLR 07/02 A3001 RMK AO2 T00710017
View NOTAMs / SUP AIP / TFR affecting this airport [VIEW]
Communications frequencies: [VIEW]

Runways:

RWY identifierQFULength (ft)Width (ft)SurfaceLDA (ft)
04410175GRAVEL
22410175GRAVEL

Airport contact information

Address: Arraias Brazil

Satellite view of SDBZ